Time;durP1;ratioP1;P1;durP2;ratioP2;P2;SDS_P1;SDS_P2;PMS_P1;PMS_P2;Temp;Humidity;BMP_temperature;BMP_pressure;BME280_temperature;BME280_humidity;BME280_pressure;Samples;Min_cycle;Max_cycle;Signal;HPM_P1;HPM_P2
2022/12/08 00:00:18;;;;;;;45.22;18.80;;;;;;;-24.13;50.11;98730.94;6324575;28;20181;-66
2022/12/08 00:03:19;;;;;;;50.60;20.85;;;;;;;-24.12;49.79;98736.81;6324161;28;20505;-66
2022/12/08 00:09:50;;;;;;;59.88;27.17;;;;;;;-24.12;49.60;98732.69;6324536;28;20044;-66
2022/12/08 00:12:54;;;;;;;111.07;36.25;;;;;;;-24.16;49.92;98717.34;6324251;28;20039;-65
2022/12/08 00:16:01;;;;;;;91.03;33.03;;;;;;;-24.16;50.39;98712.38;6323442;28;20048;-67
2022/12/08 00:19:04;;;;;;;97.80;35.88;;;;;;;-24.16;49.97;98715.72;6324048;28;20128;-66
2022/12/08 00:22:09;;;;;;;115.85;42.03;;;;;;;-24.17;50.05;98713.97;6323933;28;20358;-66
2022/12/08 00:25:13;;;;;;;110.43;42.50;;;;;;;-24.13;49.92;98716.03;6323970;28;20074;-66
2022/12/08 00:28:17;;;;;;;108.15;40.75;;;;;;;-24.17;50.01;98709.00;6323703;28;20048;-65
2022/12/08 00:31:18;;;;;;;114.40;38.22;;;;;;;-24.15;50.24;98714.97;6323034;28;20501;-66
2022/12/08 00:34:23;;;;;;;112.28;39.50;;;;;;;-24.16;50.38;98723.19;6323640;28;20040;-67
2022/12/08 00:37:24;;;;;;;82.90;34.90;;;;;;;-24.17;50.36;98720.53;6323591;28;20052;-66
2022/12/08 00:40:25;;;;;;;121.85;38.65;;;;;;;-24.16;50.46;98725.69;6323268;28;20052;-67
2022/12/08 00:43:29;;;;;;;88.68;35.72;;;;;;;-24.18;50.12;98729.63;6323384;28;20047;-68
2022/12/08 00:46:30;;;;;;;95.22;34.38;;;;;;;-24.19;50.14;98725.38;6323162;28;20165;-66
2022/12/08 00:49:32;;;;;;;103.22;36.65;;;;;;;-24.18;50.12;98726.25;6323387;28;20611;-67
2022/12/08 00:52:33;;;;;;;98.68;36.88;;;;;;;-24.23;50.28;98722.44;6322549;28;20048;-67
2022/12/08 00:55:37;;;;;;;110.68;44.88;;;;;;;-24.20;50.35;98723.59;6323160;28;20043;-66
2022/12/08 00:58:38;;;;;;;130.77;48.15;;;;;;;-24.19;50.19;98725.38;6322661;28;20039;-66
2022/12/08 01:01:40;;;;;;;132.30;47.72;;;;;;;-24.18;50.43;98727.13;6322693;28;20130;-66
2022/12/08 01:04:41;;;;;;;148.98;51.72;;;;;;;-24.17;50.26;98728.91;6323023;28;20378;-67
2022/12/08 01:07:47;;;;;;;165.77;60.03;;;;;;;-24.21;50.52;98726.81;6322915;28;20055;-65
2022/12/08 01:10:49;;;;;;;170.30;63.83;;;;;;;-24.19;50.65;98735.34;6322733;28;20489;-67
2022/12/08 01:13:50;;;;;;;208.27;72.43;;;;;;;-24.22;50.50;98720.09;6322537;28;20536;-67
2022/12/08 01:16:59;;;;;;;186.00;67.82;;;;;;;-24.13;50.77;98730.94;6322738;28;20052;-65
2022/12/08 01:20:00;;;;;;;175.32;68.00;;;;;;;-24.13;50.35;98735.94;6322545;28;20051;-66
2022/12/08 01:23:02;;;;;;;206.30;68.57;;;;;;;-24.15;50.37;98727.44;6322354;28;20036;-67
2022/12/08 01:26:06;;;;;;;215.68;78.93;;;;;;;-24.10;50.95;98733.72;6322209;28;20416;-67
2022/12/08 01:29:07;;;;;;;208.35;73.60;;;;;;;-24.09;50.39;98733.00;6322434;28;20132;-66
2022/12/08 01:32:09;;;;;;;210.50;77.00;;;;;;;-24.10;50.45;98731.25;6322295;28;20047;-66
2022/12/08 01:35:10;;;;;;;281.23;98.95;;;;;;;-24.13;50.63;98735.94;6322136;28;20044;-66
2022/12/08 01:38:11;;;;;;;226.02;83.25;;;;;;;-24.10;50.95;98740.31;6322006;28;20393;-66
2022/12/08 01:41:18;;;;;;;255.02;89.75;;;;;;;-24.10;51.04;98746.19;6321890;28;20044;-67
2022/12/08 01:44:19;;;;;;;280.50;92.70;;;;;;;-24.10;50.86;98740.31;6322127;28;20051;-67
2022/12/08 01:47:22;;;;;;;275.33;93.47;;;;;;;-24.14;50.60;98735.75;6321224;28;20087;-66
2022/12/08 01:50:25;;;;;;;255.57;96.22;;;;;;;-24.16;50.50;98740.59;6321708;28;20063;-67
2022/12/08 01:53:31;;;;;;;277.58;89.78;;;;;;;-24.15;50.62;98747.31;6321618;28;20051;-67
2022/12/08 01:56:45;;;;;;;289.85;101.40;;;;;;;-24.15;50.70;98747.31;6321318;28;20429;-67
2022/12/08 01:59:56;;;;;;;229.40;85.70;;;;;;;-24.14;50.68;98743.22;6320617;28;20429;-67
2022/12/08 02:03:03;;;;;;;252.13;89.45;;;;;;;-24.12;50.77;98740.16;6321652;28;20405;-66
2022/12/08 02:06:13;;;;;;;262.92;89.53;;;;;;;-24.14;50.73;98733.28;6321586;28;20595;-67
2022/12/08 02:09:14;;;;;;;245.38;91.18;;;;;;;-24.09;50.90;98737.09;6321190;28;20048;-67
2022/12/08 02:12:17;;;;;;;194.02;77.43;;;;;;;-24.14;50.75;98734.19;6321207;28;20044;-67
2022/12/08 02:15:52;;;;;;;231.27;83.20;;;;;;;-24.06;51.20;98743.25;6320064;28;20040;-67
2022/12/08 02:19:11;;;;;;;230.73;86.32;;;;;;;-24.08;51.11;98733.91;6321323;28;20044;-66
2022/12/08 02:22:25;;;;;;;210.80;77.63;;;;;;;-24.10;50.48;98738.72;6321274;28;20039;-66
2022/12/08 02:25:46;;;;;;;253.77;85.18;;;;;;;-24.10;50.76;98741.19;6319828;28;20558;-66
2022/12/08 02:29:25;;;;;;;218.52;78.93;;;;;;;-24.09;51.17;98728.03;6319116;28;20528;-67
2022/12/08 02:32:45;;;;;;;219.80;74.65;;;;;;;-24.06;50.96;98744.84;6320794;28;20048;-67
2022/12/08 02:35:58;;;;;;;191.30;70.60;;;;;;;-24.06;51.08;98743.25;6320167;28;20528;-66
2022/12/08 02:39:21;;;;;;;215.77;101.28;;;;;;;-24.08;51.12;98737.25;6320276;28;20513;-66
2022/12/08 02:42:46;;;;;;;183.75;68.15;;;;;;;-24.05;51.00;98734.19;6320275;28;20429;-66
2022/12/08 02:45:54;;;;;;;179.13;68.85;;;;;;;-24.07;50.85;98736.53;6319699;28;20421;-67
2022/12/08 02:48:59;;;;;;;225.35;78.13;;;;;;;-24.04;50.94;98741.78;6320773;28;20055;-67
2022/12/08 02:52:09;;;;;;;227.40;84.85;;;;;;;-24.02;51.13;98739.47;6320529;28;20040;-67
2022/12/08 02:55:22;;;;;;;224.18;83.75;;;;;;;-24.01;51.46;98732.88;6320482;28;20508;-67
2022/12/08 02:58:23;;;;;;;;;;;;;;;-23.99;51.64;98753.81;6319337;28;20059;-67
2022/12/08 03:01:56;;;;;;;143.57;56.70;;;;;;;-24.01;51.30;98737.84;6320069;28;19959;-67
2022/12/08 03:05:11;;;;;;;190.97;67.33;;;;;;;-24.02;51.00;98733.63;6320413;28;20058;-67
2022/12/08 03:08:32;;;;;;;179.90;68.45;;;;;;;-24.02;51.53;98736.09;6318565;28;20060;-67
2022/12/08 03:11:40;;;;;;;193.93;76.82;;;;;;;-24.00;51.07;98739.59;6325783;28;20424;-66
2022/12/08 03:14:48;;;;;;;207.98;75.68;;;;;;;-24.02;51.17;98736.09;6325555;28;20131;-67
2022/12/08 03:17:54;;;;;;;216.25;77.72;;;;;;;-24.01;51.38;98730.38;6325047;28;20056;-66
2022/12/08 03:20:55;;;;;;;247.10;82.35;;;;;;;-24.00;51.44;98719.69;6325163;28;20044;-68
2022/12/08 03:23:56;;;;;;;210.63;72.78;;;;;;;-23.95;51.04;98733.47;6325358;28;20044;-66
2022/12/08 03:27:03;;;;;;;215.60;78.28;;;;;;;-23.97;51.38;98734.91;6325167;28;20170;-67
2022/12/08 03:30:05;;;;;;;198.05;77.07;;;;;;;-23.97;51.51;98734.91;6324565;28;20040;-66
2022/12/08 03:33:17;;;;;;;195.98;73.63;;;;;;;-23.91;51.17;98733.06;6325371;28;20055;-67
2022/12/08 03:36:19;;;;;;;194.75;68.88;;;;;;;-23.90;51.13;98735.69;6325040;28;20127;-66
2022/12/08 03:39:21;;;;;;;201.35;72.80;;;;;;;-23.90;51.32;98733.19;6324291;28;20060;-67
2022/12/08 03:42:24;;;;;;;172.63;66.07;;;;;;;-23.93;51.68;98735.38;6323084;28;20516;-67
2022/12/08 03:45:30;;;;;;;169.27;64.85;;;;;;;-23.92;51.51;98741.22;6324774;28;20044;-66
2022/12/08 03:48:31;;;;;;;152.65;57.10;;;;;;;-23.94;51.49;98742.69;6324687;28;20043;-66
2022/12/08 03:51:38;;;;;;;158.85;61.45;;;;;;;-23.96;51.07;98750.03;6324737;28;20595;-67
2022/12/08 03:54:42;;;;;;;158.30;56.60;;;;;;;-24.05;51.26;98735.06;6324609;28;20056;-68
2022/12/08 03:57:46;;;;;;;168.57;63.10;;;;;;;-23.96;51.23;98749.16;6324560;28;20044;-68
2022/12/08 04:00:50;;;;;;;185.32;66.15;;;;;;;-23.99;51.26;98748.84;6324401;28;20042;-67
2022/12/08 04:03:52;;;;;;;140.13;51.88;;;;;;;-23.92;51.48;98756.16;6323938;28;20430;-68
2022/12/08 04:06:55;;;;;;;151.07;56.17;;;;;;;-24.07;51.92;98724.06;6324236;28;20036;-68
2022/12/08 04:10:02;;;;;;;177.82;62.78;;;;;;;-23.82;51.37;98759.69;6324232;28;20039;-66
2022/12/08 04:13:06;;;;;;;175.40;63.67;;;;;;;-23.85;51.38;98744.47;6323415;28;20079;-66
2022/12/08 04:16:24;;;;;;;170.00;61.28;;;;;;;-23.74;51.40;98762.94;6323847;28;20044;-66
2022/12/08 04:19:25;;;;;;;154.20;60.03;;;;;;;-23.75;51.58;98746.22;6323918;28;20036;-68
2022/12/08 04:22:31;;;;;;;164.70;61.53;;;;;;;-23.67;51.09;98755.28;6323172;28;20569;-67
2022/12/08 04:25:32;;;;;;;169.02;60.53;;;;;;;-23.63;51.20;98757.34;6323817;28;20082;-67
2022/12/08 04:28:36;;;;;;;166.40;61.72;;;;;;;-23.56;51.02;98762.94;6323593;28;20044;-66
2022/12/08 04:31:40;;;;;;;169.82;64.65;;;;;;;-23.71;51.41;98723.41;6323439;28;20048;-68
2022/12/08 04:34:44;;;;;;;204.27;71.07;;;;;;;-23.46;51.03;98758.06;6323543;28;20036;-68
2022/12/08 04:37:50;;;;;;;239.68;89.32;;;;;;;-23.38;50.90;98759.69;6323235;28;20055;-67
2022/12/08 04:40:52;;;;;;;184.27;72.82;;;;;;;-23.31;50.95;98762.06;6322400;28;20066;-67
2022/12/08 04:43:53;;;;;;;220.68;81.30;;;;;;;-23.20;50.98;98755.59;6323347;28;20043;-67
2022/12/08 04:46:54;;;;;;;225.13;76.38;;;;;;;-23.10;51.05;98762.31;6322211;28;20046;-67
2022/12/08 04:49:58;;;;;;;197.35;93.22;;;;;;;-22.99;50.73;98764.22;6322579;28;20048;-67
2022/12/08 04:53:02;;;;;;;170.80;60.45;;;;;;;-22.83;50.86;98764.03;6322530;28;20048;-66
2022/12/08 04:56:04;;;;;;;163.02;60.92;;;;;;;-22.81;50.32;98755.94;6322907;28;20039;-68
2022/12/08 04:59:08;;;;;;;163.40;57.42;;;;;;;-22.67;50.86;98768.09;6323006;28;20145;-67
2022/12/08 05:02:12;;;;;;;154.15;61.47;;;;;;;-22.58;50.68;98767.19;6322913;28;20040;-66
2022/12/08 05:05:13;;;;;;;165.52;62.67;;;;;;;-22.50;50.38;98766.25;6322753;28;20036;-67
2022/12/08 05:08:20;;;;;;;159.18;59.80;;;;;;;-22.36;50.51;98770.91;6322799;28;20048;-68
2022/12/08 05:11:24;;;;;;;163.60;60.35;;;;;;;-22.25;50.40;98769.41;6322832;28;20042;-66
2022/12/08 05:14:25;;;;;;;155.38;60.45;;;;;;;-22.11;50.05;98773.13;6322783;28;20036;-66
2022/12/08 05:17:29;;;;;;;154.40;59.90;;;;;;;-21.99;50.02;98784.22;6322642;28;20044;-67
2022/12/08 05:20:35;;;;;;;154.02;59.25;;;;;;;-21.84;49.97;98780.63;6322484;28;20040;-66
2022/12/08 05:23:39;;;;;;;156.50;60.03;;;;;;;-21.69;50.12;98772.75;6321769;28;20048;-67
2022/12/08 05:26:46;;;;;;;159.50;56.80;;;;;;;-21.51;50.09;98781.88;6322339;28;20044;-67
2022/12/08 05:29:49;;;;;;;152.13;52.38;;;;;;;-21.37;49.37;98781.50;6322098;28;20051;-68
2022/12/08 05:32:52;;;;;;;164.85;61.17;;;;;;;-21.15;50.04;98783.34;6319969;28;20048;-67
2022/12/08 05:35:55;;;;;;;197.60;71.93;;;;;;;-20.89;49.52;98779.00;6321475;28;20052;-67
2022/12/08 05:38:57;;;;;;;204.02;73.60;;;;;;;-20.68;49.67;98779.13;6321805;28;20039;-67
2022/12/08 05:41:59;;;;;;;181.55;65.45;;;;;;;-20.60;49.18;98782.25;6321579;28;20036;-67
2022/12/08 05:45:04;;;;;;;166.88;59.78;;;;;;;-20.59;49.41;98769.88;6321242;28;20044;-68
2022/12/08 05:48:10;;;;;;;321.98;114.97;;;;;;;-20.43;49.86;98785.44;6321820;28;20088;-66
2022/12/08 05:51:18;;;;;;;;;;;;;;;-20.33;49.86;98779.56;6322059;28;20059;-67
2022/12/08 05:54:23;;;;;;;197.75;65.80;;;;;;;-20.26;49.70;98778.50;6321215;28;20022;-68
2022/12/08 05:57:30;;;;;;;181.88;62.13;;;;;;;-20.16;49.74;98783.50;6321777;28;20170;-69
2022/12/08 06:00:34;;;;;;;184.88;66.30;;;;;;;-20.06;49.32;98775.16;6320566;28;20051;-67
2022/12/08 06:03:36;;;;;;;171.15;64.85;;;;;;;-19.92;49.89;98783.78;6321540;28;20417;-68
2022/12/08 06:06:40;;;;;;;193.98;61.50;;;;;;;-19.84;49.46;98778.69;6321584;28;20036;-68
2022/12/08 06:09:44;;;;;;;169.50;59.85;;;;;;;-19.82;49.69;98756.25;6321547;28;20044;-68
2022/12/08 06:12:45;;;;;;;169.30;60.67;;;;;;;-19.57;49.69;98777.53;6321229;28;20116;-68
2022/12/08 06:15:51;;;;;;;;;;;;;;;-19.35;50.25;98782.69;6321838;28;20443;-68
2022/12/08 06:18:58;;;;;;;136.18;49.67;;;;;;;-19.23;49.84;98777.78;6321422;28;19920;-69
2022/12/08 06:21:59;;;;;;;131.30;50.30;;;;;;;-19.11;50.41;98773.72;6321339;28;20410;-69
2022/12/08 06:25:00;;;;;;;125.05;44.63;;;;;;;-18.90;50.58;98778.72;6321261;28;20036;-69
2022/12/08 06:28:05;;;;;;;123.63;43.22;;;;;;;-18.70;50.29;98782.78;6321014;28;20051;-69
2022/12/08 06:31:09;;;;;;;159.00;50.63;;;;;;;-18.51;50.07;98765.88;6320877;28;20048;-68
2022/12/08 06:34:13;;;;;;;166.30;56.67;;;;;;;-18.33;49.72;98768.09;6321458;28;20044;-69
2022/12/08 06:37:15;;;;;;;132.48;54.75;;;;;;;-18.19;50.30;98760.84;6320367;28;20060;-67
2022/12/08 06:40:19;;;;;;;140.60;56.67;;;;;;;-17.98;50.33;98775.78;6320760;28;20040;-67
2022/12/08 06:43:21;;;;;;;172.52;64.03;;;;;;;-17.78;50.21;98765.59;6320678;28;20040;-68
2022/12/08 06:46:24;;;;;;;176.45;68.20;;;;;;;-17.57;50.28;98770.47;6320370;28;20044;-68
2022/12/08 06:49:30;;;;;;;174.68;66.95;;;;;;;-17.40;50.72;98765.06;6320651;28;20117;-67
2022/12/08 06:52:32;;;;;;;184.98;70.78;;;;;;;-17.24;50.68;98775.44;6319764;28;20050;-68
2022/12/08 06:55:46;;;;;;;186.20;67.47;;;;;;;-17.09;50.91;98767.31;6320678;28;20062;-67
2022/12/08 06:58:50;;;;;;;151.55;59.08;;;;;;;-16.94;51.06;98773.44;6320552;28;20044;-69
2022/12/08 07:01:53;;;;;;;164.15;63.72;;;;;;;-16.79;51.13;98769.47;6320514;28;20043;-68
2022/12/08 07:04:55;;;;;;;161.40;63.42;;;;;;;-16.63;51.24;98765.53;6319884;28;20044;-68
2022/12/08 07:08:02;;;;;;;152.40;59.20;;;;;;;-16.48;51.50;98760.69;6320509;28;20459;-68
2022/12/08 07:11:10;;;;;;;123.32;47.78;;;;;;;-16.20;51.64;98764.34;6320461;28;20036;-67
2022/12/08 07:14:14;;;;;;;136.93;52.63;;;;;;;-12.04;48.22;98756.91;6320062;28;20040;-67
2022/12/08 07:17:18;;;;;;;113.82;46.92;;;;;;;-5.71;39.32;98754.22;6318246;28;20444;-67
2022/12/08 07:20:21;;;;;;;103.63;44.67;;;;;;;-0.42;32.88;98756.69;6319424;28;20087;-69
2022/12/08 07:23:25;;;;;;;96.78;40.55;;;;;;;3.45;28.89;98747.66;6320017;28;20125;-68
2022/12/08 07:26:30;;;;;;;110.82;52.13;;;;;;;6.25;27.05;98751.31;6320033;28;20059;-67
2022/12/08 07:30:01;;;;;;;101.50;47.65;;;;;;;8.19;24.77;98739.34;6320470;28;20448;-68
2022/12/08 07:33:03;;;;;;;101.38;46.88;;;;;;;10.00;24.34;98736.75;6319806;28;20048;-67
2022/12/08 07:36:05;;;;;;;;;;;;;;;11.64;24.28;98744.91;6320645;28;20063;-67
2022/12/08 07:39:07;;;;;;;84.75;41.40;;;;;;;12.33;22.77;98743.91;6319834;28;19920;-67
2022/12/08 07:42:08;;;;;;;63.83;33.28;;;;;;;13.34;21.73;98744.78;6320242;28;20051;-68
2022/12/08 07:45:11;;;;;;;56.70;29.08;;;;;;;14.38;20.20;98739.72;6320105;28;20086;-67
2022/12/08 07:48:16;;;;;;;63.03;34.25;;;;;;;14.90;19.82;98730.06;6319372;28;20193;-68
2022/12/08 07:51:20;;;;;;;51.80;28.10;;;;;;;15.52;18.87;98727.59;6318741;28;20409;-68
2022/12/08 07:54:21;;;;;;;44.83;23.33;;;;;;;15.96;18.19;98727.75;6317964;28;20052;-68
2022/12/08 07:57:26;;;;;;;39.65;21.17;;;;;;;16.37;17.75;98711.25;6322984;28;20044;-67
2022/12/08 08:00:27;;;;;;;31.30;16.95;;;;;;;16.89;17.47;98723.22;6323111;28;20035;-66
2022/12/08 08:03:29;;;;;;;27.02;13.02;;;;;;;17.29;16.84;98721.59;6324180;28;20052;-68
2022/12/08 08:06:33;;;;;;;;;;;;;;;18.59;18.04;98728.22;6324793;28;20516;-69
2022/12/08 08:09:34;;;;;;;10.15;6.70;;;;;;;18.22;16.94;98722.72;6324190;28;19927;-68
2022/12/08 08:12:36;;;;;;;11.75;5.35;;;;;;;18.18;16.24;98722.06;6324339;28;20036;-67
2022/12/08 08:15:38;;;;;;;8.07;5.15;;;;;;;18.21;15.43;98710.34;6324100;28;20047;-68
2022/12/08 08:18:42;;;;;;;6.55;4.72;;;;;;;18.16;14.87;98709.81;6323253;28;20048;-68
2022/12/08 08:21:48;;;;;;;8.98;4.97;;;;;;;18.34;15.06;98710.38;6323878;28;20051;-68
2022/12/08 08:24:53;;;;;;;9.10;5.63;;;;;;;18.34;14.70;98700.59;6323963;28;20635;-67
2022/12/08 08:27:54;;;;;;;11.45;7.28;;;;;;;18.49;14.01;98703.19;6323849;28;20135;-67
2022/12/08 08:30:59;;;;;;;10.77;6.72;;;;;;;18.52;13.51;98703.81;6322243;28;20564;-70
2022/12/08 08:34:05;;;;;;;10.93;6.40;;;;;;;19.04;13.30;98694.03;6324262;28;20048;-69
2022/12/08 08:37:11;;;;;;;8.60;6.50;;;;;;;19.50;12.90;98701.41;6323965;28;20127;-68
2022/12/08 08:40:17;;;;;;;9.02;6.15;;;;;;;18.87;13.26;98689.88;6323667;28;20123;-73
2022/12/08 08:43:29;;;;;;;12.13;7.78;;;;;;;18.53;13.14;98688.66;6323118;28;20079;-68
2022/12/08 08:46:33;;;;;;;16.45;10.93;;;;;;;17.92;13.49;98694.50;6323579;28;20173;-69
2022/12/08 08:49:37;;;;;;;8.50;5.93;;;;;;;17.50;13.37;98692.78;6323269;28;20044;-70
2022/12/08 08:52:43;;;;;;;7.18;4.22;;;;;;;17.84;12.72;98683.50;6323200;28;20051;-68
2022/12/08 08:55:45;;;;;;;3.65;2.90;;;;;;;18.06;12.80;98684.72;6323102;28;20062;-68
2022/12/08 08:58:52;;;;;;;4.25;3.13;;;;;;;18.01;12.74;98676.22;6323056;28;20036;-69
2022/12/08 09:01:59;;;;;;;4.40;2.85;;;;;;;17.89;12.73;98677.84;6323228;28;20497;-68
2022/12/08 09:05:03;;;;;;;3.28;2.60;;;;;;;17.03;13.29;98678.88;6322506;28;20056;-69
2022/12/08 09:08:13;;;;;;;2.22;2.03;;;;;;;16.19;13.20;98673.31;6322905;28;20044;-70
2022/12/08 09:11:19;;;;;;;2.97;1.90;;;;;;;15.67;13.66;98673.66;6322873;28;20040;-68
2022/12/08 09:14:22;;;;;;;1.25;1.15;;;;;;;15.83;13.63;98679.00;6322837;28;20109;-67
2022/12/08 09:17:24;;;;;;;1.55;1.20;;;;;;;16.08;13.28;98652.72;6322823;28;20040;-69
2022/12/08 09:20:25;;;;;;;1.02;0.93;;;;;;;15.89;13.44;98675.97;6322733;28;20039;-70
2022/12/08 09:23:28;;;;;;;1.25;1.13;;;;;;;16.11;13.21;98670.28;6322436;28;20128;-70
2022/12/08 09:26:32;;;;;;;1.58;1.30;;;;;;;15.71;13.38;98670.78;6322357;28;20497;-69
2022/12/08 09:29:39;;;;;;;4.00;2.58;;;;;;;15.84;13.38;98678.03;6322632;28;20047;-69
2022/12/08 09:32:45;;;;;;;6.55;4.18;;;;;;;15.99;13.43;98678.94;6322594;28;20557;-70
2022/12/08 09:35:52;;;;;;;6.93;4.65;;;;;;;16.14;13.35;98673.59;6322170;28;20047;-69
2022/12/08 09:39:00;;;;;;;10.82;6.50;;;;;;;16.25;13.13;98680.94;6322482;28;20047;-70
2022/12/08 09:42:05;;;;;;;15.48;8.30;;;;;;;16.32;13.16;98673.47;6321756;28;20206;-71
2022/12/08 09:45:15;;;;;;;18.88;10.65;;;;;;;16.30;12.95;98678.00;6321718;28;20139;-70
2022/12/08 09:48:37;;;;;;;12.93;8.27;;;;;;;16.19;12.81;98680.44;6321932;28;20070;-69
2022/12/08 09:52:20;;;;;;;6.60;4.03;;;;;;;15.78;12.66;98681.06;6321959;28;20502;-70
2022/12/08 09:55:35;;;;;;;9.25;5.57;;;;;;;14.53;13.26;98681.63;6321099;28;20052;-69
2022/12/08 09:58:58;;;;;;;5.40;3.20;;;;;;;14.54;13.41;98683.34;6321832;28;20244;-69
2022/12/08 10:02:00;;;;;;;6.57;4.60;;;;;;;13.35;13.97;98683.00;6321337;28;20403;-69
2022/12/08 10:05:04;;;;;;;4.40;2.85;;;;;;;9.37;16.50;98678.28;6321504;28;20457;-69
2022/12/08 10:08:23;;;;;;;4.28;2.20;;;;;;;5.13;19.03;98676.47;6321376;28;20075;-70
2022/12/08 10:11:56;;;;;;;5.50;3.30;;;;;;;1.49;22.10;98659.97;6319500;28;20159;-69
2022/12/08 10:15:19;;;;;;;7.70;4.10;;;;;;;-0.92;25.13;98671.75;6318411;28;20418;-70
2022/12/08 10:18:29;;;;;;;9.15;4.88;;;;;;;-2.49;26.27;98674.94;6320611;28;20044;-69
2022/12/08 10:21:38;;;;;;;5.22;3.42;;;;;;;-3.61;27.50;98665.22;6321231;28;20040;-68
2022/12/08 10:25:04;;;;;;;3.67;2.08;;;;;;;-4.57;28.49;98663.13;6320138;28;20062;-70
2022/12/08 10:28:11;;;;;;;3.90;2.55;;;;;;;-5.40;29.03;98668.75;6321021;28;20078;-69
2022/12/08 10:31:19;;;;;;;4.75;3.67;;;;;;;-6.07;30.13;98654.91;6320797;28;20036;-68
2022/12/08 10:34:25;;;;;;;8.40;4.35;;;;;;;-6.57;30.21;98654.25;6319208;28;20043;-68
2022/12/08 10:37:35;;;;;;;7.13;3.53;;;;;;;-6.89;30.50;98671.16;6320766;28;20052;-68
2022/12/08 10:40:46;;;;;;;5.05;3.83;;;;;;;-7.30;31.22;98678.31;6320744;28;20043;-67
2022/12/08 10:44:00;;;;;;;8.23;4.82;;;;;;;-7.64;32.07;98677.13;6320648;28;20048;-68
2022/12/08 10:47:11;;;;;;;7.07;3.23;;;;;;;-8.03;32.37;98681.66;6320618;28;20070;-67
2022/12/08 10:50:19;;;;;;;5.03;2.67;;;;;;;-8.43;33.41;98680.19;6320529;28;20442;-67
2022/12/08 10:53:29;;;;;;;13.77;5.35;;;;;;;-8.70;32.95;98675.72;6320227;28;20238;-68
2022/12/08 10:56:45;;;;;;;8.13;4.97;;;;;;;-8.94;33.23;98675.63;6320511;28;20047;-67
2022/12/08 10:59:59;;;;;;;28.40;12.57;;;;;;;-9.12;33.29;98685.94;6320677;28;20090;-68
2022/12/08 11:03:25;;;;;;;25.38;10.65;;;;;;;-9.38;34.58;98676.34;6320543;28;20413;-68
2022/12/08 11:06:36;;;;;;;31.25;13.02;;;;;;;-9.65;34.87;98676.00;6320403;28;20044;-68
2022/12/08 11:09:47;;;;;;;35.08;13.07;;;;;;;-9.82;35.01;98672.72;6320616;28;20040;-68
2022/12/08 11:12:54;;;;;;;26.13;11.68;;;;;;;-10.07;35.02;98671.66;6320396;28;20054;-68
2022/12/08 11:16:04;;;;;;;22.73;9.05;;;;;;;-10.27;35.35;98678.44;6320415;28;20089;-67
2022/12/08 11:19:13;;;;;;;25.08;12.13;;;;;;;-10.51;35.98;98678.16;6320278;28;20043;-67
2022/12/08 11:22:25;;;;;;;14.57;6.95;;;;;;;-10.69;36.94;98672.22;6319817;28;20051;-68
2022/12/08 11:25:29;;;;;;;14.13;6.43;;;;;;;-10.90;36.55;98666.97;6320087;28;20044;-67
2022/12/08 11:28:30;;;;;;;8.43;4.70;;;;;;;-10.97;36.58;98685.28;6319558;28;20048;-68
2022/12/08 11:31:48;;;;;;;6.70;3.55;;;;;;;-11.20;37.36;98671.47;6322949;28;20044;-67
2022/12/08 11:34:59;;;;;;;4.57;2.72;;;;;;;-11.37;37.81;98676.56;6325151;28;20055;-67
2022/12/08 11:38:20;;;;;;;6.45;4.35;;;;;;;-11.61;38.46;98683.81;6324946;28;20051;-68
2022/12/08 11:41:28;;;;;;;3.08;2.22;;;;;;;-11.81;38.27;98684.47;6325007;28;20047;-68
2022/12/08 11:44:57;;;;;;;6.82;3.45;;;;;;;-12.06;39.07;98682.34;6325003;28;20497;-68
2022/12/08 11:48:31;;;;;;;3.63;2.83;;;;;;;-12.26;39.54;98684.72;6324431;28;20047;-68
2022/12/08 11:51:53;;;;;;;5.00;2.45;;;;;;;-12.50;39.93;98683.41;6323949;28;20047;-68
2022/12/08 11:55:34;;;;;;;7.45;3.05;;;;;;;-12.66;40.68;98687.63;6323085;28;20047;-67
2022/12/08 11:58:43;;;;;;;3.15;2.50;;;;;;;-12.84;40.02;98691.69;6324419;28;20052;-67
2022/12/08 12:01:47;;;;;;;5.05;2.25;;;;;;;-13.01;39.70;98684.81;6324477;28;20040;-67
2022/12/08 12:05:07;;;;;;;7.03;3.58;;;;;;;-13.13;41.13;98678.28;6322375;28;20063;-69
2022/12/08 12:08:43;;;;;;;10.20;4.20;;;;;;;-13.17;40.20;98686.47;6324215;28;20048;-69
2022/12/08 12:12:31;;;;;;;19.35;7.38;;;;;;;-13.30;41.70;98683.19;6252971;28;20064;-68
2022/12/08 12:16:29;;;;;;;22.55;11.48;;;;;;;-13.52;41.42;98681.09;6224404;28;20041;-68
2022/12/08 12:19:38;;;;;;;34.90;15.20;;;;;;;-13.77;41.53;98692.31;6221865;28;20045;-69
2022/12/08 12:22:51;;;;;;;31.02;12.75;;;;;;;-14.02;41.59;98693.38;6223435;28;20050;-68
2022/12/08 12:26:01;;;;;;;28.92;13.60;;;;;;;-14.13;41.29;98694.38;6324007;28;20050;-68
2022/12/08 12:29:11;;;;;;;30.77;13.98;;;;;;;-14.31;41.41;98683.16;6323604;28;20056;-69
2022/12/08 12:32:15;;;;;;;30.33;14.45;;;;;;;-14.45;41.60;98687.38;6323825;28;20044;-69
2022/12/08 12:35:32;;;;;;;26.15;13.00;;;;;;;-14.57;42.88;98685.00;6323608;28;20044;-69
2022/12/08 12:39:02;;;;;;;24.75;12.25;;;;;;;-14.68;42.37;98691.03;6322976;28;20051;-69
2022/12/08 12:42:04;;;;;;;22.02;10.02;;;;;;;-14.83;41.73;98690.06;6322712;28;20059;-67
2022/12/08 12:45:20;;;;;;;30.27;11.82;;;;;;;-14.96;42.99;98689.28;6323493;28;20063;-69
2022/12/08 12:48:24;;;;;;;19.00;9.25;;;;;;;-15.11;42.36;98677.34;6323305;28;20040;-68
2022/12/08 12:51:38;;;;;;;16.95;7.90;;;;;;;-15.11;43.81;98688.34;6323309;28;20043;-69
2022/12/08 12:55:08;;;;;;;13.27;6.50;;;;;;;-15.16;42.95;98679.59;6322881;28;20071;-69
2022/12/08 12:58:27;;;;;;;8.35;5.25;;;;;;;-15.28;43.14;98678.78;6315644;28;20059;-68
2022/12/08 13:01:51;;;;;;;9.52;5.45;;;;;;;-15.45;42.52;98673.53;6322994;28;20044;-68
2022/12/08 13:05:00;;;;;;;;;;;;;;;-15.48;42.20;98672.44;6322319;28;20032;-68
2022/12/08 13:08:15;;;;;;;14.85;6.03;;;;;;;-15.68;42.10;98672.06;6322488;28;19916;-68
2022/12/08 13:11:20;;;;;;;10.55;4.47;;;;;;;-15.80;42.41;98660.28;6322614;28;20048;-68
2022/12/08 13:14:34;;;;;;;8.33;4.90;;;;;;;-15.77;43.80;98673.09;6321419;28;20134;-68
2022/12/08 13:17:37;;;;;;;;;;;;;;;-15.77;42.66;98670.56;6322225;28;20466;-68
2022/12/08 13:20:46;;;;;;;7.38;4.80;;;;;;;-15.87;42.94;98675.00;6322684;28;19927;-69
2022/12/08 13:24:13;;;;;;;10.40;5.50;;;;;;;-15.92;43.60;98676.34;6322444;28;20036;-68
2022/12/08 13:27:34;;;;;;;12.38;5.80;;;;;;;-15.96;44.01;98689.53;6312170;28;20052;-68
2022/12/08 13:30:45;;;;;;;16.02;5.57;;;;;;;-16.02;43.45;98686.56;6322209;28;20458;-69
2022/12/08 13:33:49;;;;;;;12.80;5.38;;;;;;;-16.06;43.04;98682.09;6322339;28;20050;-67
2022/12/08 13:36:56;;;;;;;6.75;4.50;;;;;;;-16.09;43.41;98681.91;6322251;28;20435;-68
2022/12/08 13:40:17;;;;;;;15.15;5.95;;;;;;;-16.16;44.16;98674.69;6320558;28;20362;-69
2022/12/08 13:43:53;;;;;;;10.13;5.82;;;;;;;-16.22;45.30;98679.31;6322218;28;20048;-67
2022/12/08 13:47:00;;;;;;;10.75;5.65;;;;;;;-16.32;43.58;98668.63;6309202;28;20047;-68
2022/12/08 13:50:11;;;;;;;13.38;5.97;;;;;;;-16.40;44.35;98677.28;6321355;28;20048;-68
2022/12/08 13:53:36;;;;;;;15.77;6.05;;;;;;;-16.47;44.41;98677.66;6320416;28;20055;-68
2022/12/08 13:56:44;;;;;;;15.65;6.47;;;;;;;-16.57;44.05;98675.25;6321436;28;20181;-69
2022/12/08 13:59:46;;;;;;;12.68;6.63;;;;;;;-16.62;43.79;98674.94;6321778;28;20047;-68
2022/12/08 14:02:56;;;;;;;21.63;7.43;;;;;;;-16.62;44.15;98681.63;6321544;28;20040;-68
2022/12/08 14:06:02;;;;;;;28.92;9.98;;;;;;;-16.71;43.90;98666.75;6321397;28;20048;-67
2022/12/08 14:09:13;;;;;;;26.15;10.45;;;;;;;-16.71;44.12;98675.94;6321585;28;20040;-68
2022/12/08 14:12:21;;;;;;;23.13;8.35;;;;;;;-16.69;43.85;98679.47;6303538;28;20090;-69
2022/12/08 14:15:26;;;;;;;11.77;5.38;;;;;;;-16.60;44.60;98675.91;6318833;28;20539;-68
2022/12/08 14:18:33;;;;;;;34.70;12.63;;;;;;;-16.49;44.71;98674.16;6321321;28;20055;-68
2022/12/08 14:21:37;;;;;;;52.42;17.17;;;;;;;-16.44;44.50;98676.97;6321090;28;20421;-68
2022/12/08 14:24:39;;;;;;;37.90;13.32;;;;;;;-16.49;44.37;98679.19;6321118;28;20062;-67